Aérodrome :
LOGIN :

S'inscrire | Disclaimer

   EN    FR    IT 

 










Légende :    VFR   VFR Marginal   IFR   IFR Intensif   IFR Très Intensif
Visi : 
Plafond : 
>= 8 km
>= 3000ft
5 à 8 km
1000 à 3000 ft
1500m à 5 km
500 à 1000 ft
800 à 1500m
200 à 500 ft
< 800m
< 200 ft
Symboles :   Orages  Brouillard  Fortes neiges  Fortes précipitations  Vent > 20 kt
SIGMETs :   Divers  Orages  Givrage  Turbulence  Onde Orograph.  Cendres Volcan.






- Altitude de l'aérodrome : 20 ft


EBFN - Koksijde

DERNIER METAR :
  • 201255Z AUTO 03009KT 9999 FEW022/// BKN034/// BKN091/// 14/10 Q1009 BLU

METARs EXPIRÉS :
  • 201225Z AUTO 02010KT 9999 FEW022/// SCT052/// BKN096/// 14/10 Q1009 BLU
  • 201155Z AUTO 02010KT 9999 FEW069/// BKN140/// 14/10 Q1009 BLU
  • 201125Z AUTO 01008KT 9999 SCT100/// BKN150/// 14/10 Q1008 BLU
  • 201055Z AUTO 01008KT 9999 FEW026/// BKN049/// BKN100/// 14/09 Q1009 BLU
  • 201025Z AUTO 01006KT 9999 BKN025/// BKN049/// 13/10 Q1009 BLU

TAF TAF EBFN
Valide du 20 à 10h jusqu'au 20 à 19h UTC


200841Z 2010/2019 VRB03KT 9999 FEW020 BKN140
BECMG 2010/2012 02007KT SCT015 BKN090



MET'MAP, la Météo Aéronautique d'un coup d'oeil ! - Copyright ORBIFLY Décembre 2007 - Disclaimer

ORBIFLY MET'MAP TEAM :

Programmation & Développement : Alexandra Zaïnal
Conception & Développement : Baudouin d'Aumeries
Co-Programmation & Développement : Marc-Olivier Méhu
Soutien technique & logistique : Manuel Goepfert

Contact : metmap@orbifly.com




SOURCES & CREDITS :

   NOAA